sensor_id;sensor_type;location;lat;lon;timestamp;temperature;humidity
21582;DHT22;10952;50.836;4.348;2024-02-04T00:00:52;11.40;99.90
21582;DHT22;10952;50.836;4.348;2024-02-04T00:03:20;11.40;99.90
21582;DHT22;10952;50.836;4.348;2024-02-04T00:05:50;11.40;99.90
21582;DHT22;10952;50.836;4.348;2024-02-04T00:08:18;11.40;99.90
21582;DHT22;10952;50.836;4.348;2024-02-04T00:10:44;11.30;99.90
21582;DHT22;10952;50.836;4.348;2024-02-04T00:13:14;11.40;99.90
21582;DHT22;10952;50.836;4.348;2024-02-04T00:15:45;11.40;99.90
21582;DHT22;10952;50.836;4.348;2024-02-04T00:18:14;11.40;99.90
21582;DHT22;10952;50.836;4.348;2024-02-04T00:20:42;11.30;99.90
21582;DHT22;10952;50.836;4.348;2024-02-04T00:23:25;11.30;99.90
21582;DHT22;10952;50.836;4.348;2024-02-04T00:25:53;11.40;99.90
21582;DHT22;10952;50.836;4.348;2024-02-04T00:28:19;11.30;99.90
21582;DHT22;10952;50.836;4.348;2024-02-04T00:30:48;11.30;99.90
21582;DHT22;10952;50.836;4.348;2024-02-04T00:33:17;11.30;99.90
21582;DHT22;10952;50.836;4.348;2024-02-04T00:35:46;11.30;99.90
21582;DHT22;10952;50.836;4.348;2024-02-04T00:38:15;11.30;99.90
21582;DHT22;10952;50.836;4.348;2024-02-04T00:40:42;11.30;99.90
21582;DHT22;10952;50.836;4.348;2024-02-04T00:43:09;11.30;99.90
21582;DHT22;10952;50.836;4.348;2024-02-04T00:45:38;11.30;99.90
21582;DHT22;10952;50.836;4.348;2024-02-04T00:48:05;11.20;99.90
21582;DHT22;10952;50.836;4.348;2024-02-04T00:50:33;11.10;99.90
21582;DHT22;10952;50.836;4.348;2024-02-04T00:53:02;11.30;99.90
21582;DHT22;10952;50.836;4.348;2024-02-04T00:55:31;11.30;99.90
21582;DHT22;10952;50.836;4.348;2024-02-04T00:57:58;11.30;99.90
21582;DHT22;10952;50.836;4.348;2024-02-04T01:00:34;11.30;99.90
21582;DHT22;10952;50.836;4.348;2024-02-04T01:03:02;11.40;99.90
21582;DHT22;10952;50.836;4.348;2024-02-04T01:05:31;11.30;99.90
21582;DHT22;10952;50.836;4.348;2024-02-04T01:07:56;11.30;99.90
21582;DHT22;10952;50.836;4.348;2024-02-04T01:10:23;11.30;99.90
21582;DHT22;10952;50.836;4.348;2024-02-04T01:12:52;11.30;99.90
21582;DHT22;10952;50.836;4.348;2024-02-04T01:15:28;11.30;99.90
21582;DHT22;10952;50.836;4.348;2024-02-04T01:18:00;11.20;99.90
21582;DHT22;10952;50.836;4.348;2024-02-04T01:20:25;11.30;99.90
21582;DHT22;10952;50.836;4.348;2024-02-04T01:22:58;11.30;99.90
21582;DHT22;10952;50.836;4.348;2024-02-04T01:25:25;11.40;99.90
21582;DHT22;10952;50.836;4.348;2024-02-04T01:27:54;11.40;99.90
21582;DHT22;10952;50.836;4.348;2024-02-04T01:30:20;11.40;99.90
21582;DHT22;10952;50.836;4.348;2024-02-04T01:32:46;11.40;99.90
21582;DHT22;10952;50.836;4.348;2024-02-04T01:35:34;11.40;99.90
21582;DHT22;10952;50.836;4.348;2024-02-04T01:41:04;11.40;99.90
21582;DHT22;10952;50.836;4.348;2024-02-04T01:43:30;11.30;99.90
21582;DHT22;10952;50.836;4.348;2024-02-04T01:45:59;11.30;99.90
21582;DHT22;10952;50.836;4.348;2024-02-04T01:48:25;11.40;99.90
21582;DHT22;10952;50.836;4.348;2024-02-04T01:50:55;11.40;99.90
21582;DHT22;10952;50.836;4.348;2024-02-04T01:53:25;11.40;99.90
21582;DHT22;10952;50.836;4.348;2024-02-04T01:55:58;11.40;99.90
21582;DHT22;10952;50.836;4.348;2024-02-04T01:58:24;11.30;99.90
21582;DHT22;10952;50.836;4.348;2024-02-04T02:01:10;11.30;99.90
21582;DHT22;10952;50.836;4.348;2024-02-04T02:03:40;11.40;99.90
21582;DHT22;10952;50.836;4.348;2024-02-04T02:06:12;11.40;99.90
21582;DHT22;10952;50.836;4.348;2024-02-04T02:08:48;11.40;99.90
21582;DHT22;10952;50.836;4.348;2024-02-04T02:14:13;11.40;99.90
21582;DHT22;10952;50.836;4.348;2024-02-04T02:16:44;11.40;99.90
21582;DHT22;10952;50.836;4.348;2024-02-04T02:19:59;11.40;99.90
21582;DHT22;10952;50.836;4.348;2024-02-04T02:22:39;11.40;99.90
21582;DHT22;10952;50.836;4.348;2024-02-04T02:25:15;11.40;99.90
21582;DHT22;10952;50.836;4.348;2024-02-04T02:27:51;11.40;99.90
21582;DHT22;10952;50.836;4.348;2024-02-04T02:30:19;11.40;99.90
21582;DHT22;10952;50.836;4.348;2024-02-04T02:32:46;11.40;99.90
21582;DHT22;10952;50.836;4.348;2024-02-04T02:35:15;11.40;99.90
21582;DHT22;10952;50.836;4.348;2024-02-04T02:38:23;11.30;99.90
21582;DHT22;10952;50.836;4.348;2024-02-04T02:41:03;11.30;99.90
21582;DHT22;10952;50.836;4.348;2024-02-04T02:43:33;11.30;99.90
21582;DHT22;10952;50.836;4.348;2024-02-04T02:46:01;11.30;99.90
21582;DHT22;10952;50.836;4.348;2024-02-04T02:48:33;11.30;99.90
21582;DHT22;10952;50.836;4.348;2024-02-04T02:51:05;11.30;99.90
21582;DHT22;10952;50.836;4.348;2024-02-04T02:53:31;11.30;99.90
21582;DHT22;10952;50.836;4.348;2024-02-04T02:55:57;11.30;99.90
21582;DHT22;10952;50.836;4.348;2024-02-04T02:58:26;11.30;99.90
21582;DHT22;10952;50.836;4.348;2024-02-04T03:00:53;11.30;99.90
21582;DHT22;10952;50.836;4.348;2024-02-04T03:03:22;11.30;99.90
21582;DHT22;10952;50.836;4.348;2024-02-04T03:05:49;11.30;99.90
21582;DHT22;10952;50.836;4.348;2024-02-04T03:08:21;11.30;99.90
21582;DHT22;10952;50.836;4.348;2024-02-04T03:10:47;11.20;99.90
21582;DHT22;10952;50.836;4.348;2024-02-04T03:13:15;11.30;99.90
21582;DHT22;10952;50.836;4.348;2024-02-04T03:15:44;11.20;99.90
21582;DHT22;10952;50.836;4.348;2024-02-04T03:18:21;11.20;99.90
21582;DHT22;10952;50.836;4.348;2024-02-04T03:20:50;11.10;99.90
21582;DHT22;10952;50.836;4.348;2024-02-04T03:23:18;11.20;99.90
21582;DHT22;10952;50.836;4.348;2024-02-04T03:25:49;11.20;99.90
21582;DHT22;10952;50.836;4.348;2024-02-04T03:28:17;11.10;99.90
21582;DHT22;10952;50.836;4.348;2024-02-04T03:30:47;11.20;99.90
21582;DHT22;10952;50.836;4.348;2024-02-04T03:33:16;11.20;99.90
21582;DHT22;10952;50.836;4.348;2024-02-04T03:35:44;11.30;99.90
21582;DHT22;10952;50.836;4.348;2024-02-04T03:38:09;11.30;99.90
21582;DHT22;10952;50.836;4.348;2024-02-04T03:40:41;11.30;99.90
21582;DHT22;10952;50.836;4.348;2024-02-04T03:43:11;11.30;99.90
21582;DHT22;10952;50.836;4.348;2024-02-04T03:45:45;11.40;99.90
21582;DHT22;10952;50.836;4.348;2024-02-04T03:48:14;11.40;99.90
21582;DHT22;10952;50.836;4.348;2024-02-04T03:50:40;11.40;99.90
21582;DHT22;10952;50.836;4.348;2024-02-04T03:53:33;11.40;99.90
21582;DHT22;10952;50.836;4.348;2024-02-04T03:56:01;11.40;99.90
21582;DHT22;10952;50.836;4.348;2024-02-04T03:58:28;11.40;99.90
21582;DHT22;10952;50.836;4.348;2024-02-04T04:01:00;11.40;99.90
21582;DHT22;10952;50.836;4.348;2024-02-04T04:03:28;11.40;99.90
21582;DHT22;10952;50.836;4.348;2024-02-04T04:05:57;11.40;99.90
21582;DHT22;10952;50.836;4.348;2024-02-04T04:08:23;11.40;99.90
21582;DHT22;10952;50.836;4.348;2024-02-04T04:10:55;11.40;99.90
21582;DHT22;10952;50.836;4.348;2024-02-04T04:13:21;11.50;99.90
21582;DHT22;10952;50.836;4.348;2024-02-04T04:15:48;11.40;99.90
21582;DHT22;10952;50.836;4.348;2024-02-04T04:18:14;11.40;99.90
21582;DHT22;10952;50.836;4.348;2024-02-04T04:20:40;11.40;99.90
21582;DHT22;10952;50.836;4.348;2024-02-04T04:26:44;11.40;99.90
21582;DHT22;10952;50.836;4.348;2024-02-04T04:32:32;11.30;99.90
21582;DHT22;10952;50.836;4.348;2024-02-04T04:35:00;11.30;99.90
21582;DHT22;10952;50.836;4.348;2024-02-04T04:37:25;11.20;99.90
21582;DHT22;10952;50.836;4.348;2024-02-04T04:39:54;11.30;99.90
21582;DHT22;10952;50.836;4.348;2024-02-04T04:42:24;11.30;99.90
21582;DHT22;10952;50.836;4.348;2024-02-04T04:44:52;11.30;99.90
21582;DHT22;10952;50.836;4.348;2024-02-04T04:47:19;11.20;99.90
21582;DHT22;10952;50.836;4.348;2024-02-04T04:49:48;11.20;99.90
21582;DHT22;10952;50.836;4.348;2024-02-04T04:52:16;11.20;99.90
21582;DHT22;10952;50.836;4.348;2024-02-04T04:54:43;11.20;99.90
21582;DHT22;10952;50.836;4.348;2024-02-04T04:57:12;11.20;99.90
21582;DHT22;10952;50.836;4.348;2024-02-04T04:59:41;11.30;99.90
21582;DHT22;10952;50.836;4.348;2024-02-04T05:02:09;11.30;99.90
21582;DHT22;10952;50.836;4.348;2024-02-04T05:04:36;11.30;99.90
21582;DHT22;10952;50.836;4.348;2024-02-04T05:07:11;11.40;99.90
21582;DHT22;10952;50.836;4.348;2024-02-04T05:09:38;11.30;99.90
21582;DHT22;10952;50.836;4.348;2024-02-04T05:12:09;11.40;99.90
21582;DHT22;10952;50.836;4.348;2024-02-04T05:14:41;11.30;99.90
21582;DHT22;10952;50.836;4.348;2024-02-04T05:17:07;11.40;99.90
21582;DHT22;10952;50.836;4.348;2024-02-04T05:19:35;11.40;99.90
21582;DHT22;10952;50.836;4.348;2024-02-04T05:22:01;11.30;99.90
21582;DHT22;10952;50.836;4.348;2024-02-04T05:24:27;11.20;99.90
21582;DHT22;10952;50.836;4.348;2024-02-04T05:26:53;11.20;99.90
21582;DHT22;10952;50.836;4.348;2024-02-04T05:29:20;11.20;99.90
21582;DHT22;10952;50.836;4.348;2024-02-04T05:31:45;11.20;99.90
21582;DHT22;10952;50.836;4.348;2024-02-04T05:34:11;11.20;99.90
21582;DHT22;10952;50.836;4.348;2024-02-04T05:36:38;11.20;99.90
21582;DHT22;10952;50.836;4.348;2024-02-04T05:39:14;11.30;99.90
21582;DHT22;10952;50.836;4.348;2024-02-04T05:41:40;11.30;99.90
21582;DHT22;10952;50.836;4.348;2024-02-04T05:44:06;11.40;99.90
21582;DHT22;10952;50.836;4.348;2024-02-04T05:46:37;11.40;99.90
21582;DHT22;10952;50.836;4.348;2024-02-04T05:49:04;11.30;99.90
21582;DHT22;10952;50.836;4.348;2024-02-04T05:51:36;11.30;99.90
21582;DHT22;10952;50.836;4.348;2024-02-04T05:54:02;11.30;99.90
21582;DHT22;10952;50.836;4.348;2024-02-04T05:56:28;11.30;99.90
21582;DHT22;10952;50.836;4.348;2024-02-04T05:58:53;11.30;99.90
21582;DHT22;10952;50.836;4.348;2024-02-04T06:01:21;11.30;99.90
21582;DHT22;10952;50.836;4.348;2024-02-04T06:03:52;11.20;99.90
21582;DHT22;10952;50.836;4.348;2024-02-04T06:06:20;11.20;99.90
21582;DHT22;10952;50.836;4.348;2024-02-04T06:08:47;11.30;99.90
21582;DHT22;10952;50.836;4.348;2024-02-04T06:11:14;11.20;99.90
21582;DHT22;10952;50.836;4.348;2024-02-04T06:13:44;11.20;99.90
21582;DHT22;10952;50.836;4.348;2024-02-04T06:16:12;11.30;99.90
21582;DHT22;10952;50.836;4.348;2024-02-04T06:18:44;11.30;99.90
21582;DHT22;10952;50.836;4.348;2024-02-04T06:21:29;11.40;99.90
21582;DHT22;10952;50.836;4.348;2024-02-04T06:23:58;11.40;99.90
21582;DHT22;10952;50.836;4.348;2024-02-04T06:26:24;11.40;99.90
21582;DHT22;10952;50.836;4.348;2024-02-04T06:28:50;11.40;99.90
21582;DHT22;10952;50.836;4.348;2024-02-04T06:31:16;11.40;99.90
21582;DHT22;10952;50.836;4.348;2024-02-04T06:33:42;11.40;99.90
21582;DHT22;10952;50.836;4.348;2024-02-04T06:36:11;11.40;99.90
21582;DHT22;10952;50.836;4.348;2024-02-04T06:38:37;11.40;99.90
21582;DHT22;10952;50.836;4.348;2024-02-04T06:41:04;11.40;99.90
21582;DHT22;10952;50.836;4.348;2024-02-04T06:43:29;11.40;99.90
21582;DHT22;10952;50.836;4.348;2024-02-04T06:45:58;11.40;99.90
21582;DHT22;10952;50.836;4.348;2024-02-04T06:48:26;11.40;99.90
21582;DHT22;10952;50.836;4.348;2024-02-04T06:50:52;11.40;99.90
21582;DHT22;10952;50.836;4.348;2024-02-04T06:53:21;11.50;99.90
21582;DHT22;10952;50.836;4.348;2024-02-04T06:55:47;11.50;99.90
21582;DHT22;10952;50.836;4.348;2024-02-04T06:58:46;11.50;99.90
21582;DHT22;10952;50.836;4.348;2024-02-04T07:01:16;11.50;99.90
21582;DHT22;10952;50.836;4.348;2024-02-04T07:03:42;11.50;99.90
21582;DHT22;10952;50.836;4.348;2024-02-04T07:06:11;11.60;99.90
21582;DHT22;10952;50.836;4.348;2024-02-04T07:08:40;11.60;99.90
21582;DHT22;10952;50.836;4.348;2024-02-04T07:11:13;11.60;99.90
21582;DHT22;10952;50.836;4.348;2024-02-04T07:13:48;11.70;99.90
21582;DHT22;10952;50.836;4.348;2024-02-04T07:16:27;11.70;99.90
21582;DHT22;10952;50.836;4.348;2024-02-04T07:21:47;11.50;99.90
21582;DHT22;10952;50.836;4.348;2024-02-04T07:24:15;11.50;99.90
21582;DHT22;10952;50.836;4.348;2024-02-04T07:27:03;11.50;99.90
21582;DHT22;10952;50.836;4.348;2024-02-04T07:29:42;11.50;99.90
21582;DHT22;10952;50.836;4.348;2024-02-04T07:32:08;11.50;99.90
21582;DHT22;10952;50.836;4.348;2024-02-04T07:35:04;11.40;99.90
21582;DHT22;10952;50.836;4.348;2024-02-04T07:37:42;11.50;99.90
21582;DHT22;10952;50.836;4.348;2024-02-04T07:40:11;11.50;99.90
21582;DHT22;10952;50.836;4.348;2024-02-04T07:42:47;11.50;99.90
21582;DHT22;10952;50.836;4.348;2024-02-04T07:45:29;11.60;99.90
21582;DHT22;10952;50.836;4.348;2024-02-04T07:51:17;11.60;99.90
21582;DHT22;10952;50.836;4.348;2024-02-04T07:53:45;11.60;99.90
21582;DHT22;10952;50.836;4.348;2024-02-04T07:56:12;11.60;99.90
21582;DHT22;10952;50.836;4.348;2024-02-04T07:58:37;11.70;99.90
21582;DHT22;10952;50.836;4.348;2024-02-04T08:01:06;11.70;99.90
21582;DHT22;10952;50.836;4.348;2024-02-04T08:03:32;11.70;99.90
21582;DHT22;10952;50.836;4.348;2024-02-04T08:05:59;11.70;99.90
21582;DHT22;10952;50.836;4.348;2024-02-04T08:08:27;11.70;99.90
21582;DHT22;10952;50.836;4.348;2024-02-04T08:10:56;11.70;99.90
21582;DHT22;10952;50.836;4.348;2024-02-04T08:13:23;11.60;99.90
21582;DHT22;10952;50.836;4.348;2024-02-04T08:15:50;11.60;99.90
21582;DHT22;10952;50.836;4.348;2024-02-04T08:18:19;11.50;99.90
21582;DHT22;10952;50.836;4.348;2024-02-04T08:20:50;11.60;99.90
21582;DHT22;10952;50.836;4.348;2024-02-04T08:23:20;11.60;99.90
21582;DHT22;10952;50.836;4.348;2024-02-04T08:25:49;11.60;99.90
21582;DHT22;10952;50.836;4.348;2024-02-04T08:28:18;11.60;99.90
21582;DHT22;10952;50.836;4.348;2024-02-04T08:30:47;11.60;99.90
21582;DHT22;10952;50.836;4.348;2024-02-04T08:33:13;11.60;99.90
21582;DHT22;10952;50.836;4.348;2024-02-04T08:35:41;11.70;99.90
21582;DHT22;10952;50.836;4.348;2024-02-04T08:38:08;11.70;99.90
21582;DHT22;10952;50.836;4.348;2024-02-04T08:40:37;11.70;99.90
21582;DHT22;10952;50.836;4.348;2024-02-04T08:43:06;11.70;99.90
21582;DHT22;10952;50.836;4.348;2024-02-04T08:45:33;11.80;99.90
21582;DHT22;10952;50.836;4.348;2024-02-04T08:48:01;11.80;99.90
21582;DHT22;10952;50.836;4.348;2024-02-04T08:50:37;11.90;99.90
21582;DHT22;10952;50.836;4.348;2024-02-04T08:53:06;11.90;99.90
21582;DHT22;10952;50.836;4.348;2024-02-04T08:55:31;12.00;99.90
21582;DHT22;10952;50.836;4.348;2024-02-04T08:57:59;12.00;99.90
21582;DHT22;10952;50.836;4.348;2024-02-04T09:00:28;12.00;99.90
21582;DHT22;10952;50.836;4.348;2024-02-04T09:02:56;11.90;99.90
21582;DHT22;10952;50.836;4.348;2024-02-04T09:05:22;11.90;99.90
21582;DHT22;10952;50.836;4.348;2024-02-04T09:07:56;11.90;99.90
21582;DHT22;10952;50.836;4.348;2024-02-04T09:10:23;12.00;99.90
21582;DHT22;10952;50.836;4.348;2024-02-04T09:12:50;11.90;99.90
21582;DHT22;10952;50.836;4.348;2024-02-04T09:15:17;11.90;99.90
21582;DHT22;10952;50.836;4.348;2024-02-04T09:17:46;11.90;99.90
21582;DHT22;10952;50.836;4.348;2024-02-04T09:20:11;12.00;99.90
21582;DHT22;10952;50.836;4.348;2024-02-04T09:22:38;11.90;99.90
21582;DHT22;10952;50.836;4.348;2024-02-04T09:25:05;12.00;99.90
21582;DHT22;10952;50.836;4.348;2024-02-04T09:27:34;12.10;99.90
21582;DHT22;10952;50.836;4.348;2024-02-04T09:30:03;12.10;99.90
21582;DHT22;10952;50.836;4.348;2024-02-04T09:32:29;12.20;99.90
21582;DHT22;10952;50.836;4.348;2024-02-04T09:34:58;12.10;99.90
21582;DHT22;10952;50.836;4.348;2024-02-04T09:37:35;12.10;99.90
21582;DHT22;10952;50.836;4.348;2024-02-04T09:40:02;12.20;99.90
21582;DHT22;10952;50.836;4.348;2024-02-04T09:42:30;12.30;99.90
21582;DHT22;10952;50.836;4.348;2024-02-04T09:45:00;12.30;99.90
21582;DHT22;10952;50.836;4.348;2024-02-04T09:47:26;12.30;99.90
21582;DHT22;10952;50.836;4.348;2024-02-04T09:49:56;12.30;99.90
21582;DHT22;10952;50.836;4.348;2024-02-04T09:52:28;12.30;99.90
21582;DHT22;10952;50.836;4.348;2024-02-04T09:55:04;12.30;99.90
21582;DHT22;10952;50.836;4.348;2024-02-04T09:57:32;12.30;99.90
21582;DHT22;10952;50.836;4.348;2024-02-04T09:59:58;12.30;99.90
21582;DHT22;10952;50.836;4.348;2024-02-04T10:02:27;12.20;99.90
21582;DHT22;10952;50.836;4.348;2024-02-04T10:04:53;12.10;99.90
21582;DHT22;10952;50.836;4.348;2024-02-04T10:07:22;12.20;99.90
21582;DHT22;10952;50.836;4.348;2024-02-04T10:09:52;12.20;99.90
21582;DHT22;10952;50.836;4.348;2024-02-04T10:12:21;12.20;99.90
21582;DHT22;10952;50.836;4.348;2024-02-04T10:14:49;12.20;99.90
21582;DHT22;10952;50.836;4.348;2024-02-04T10:17:21;12.30;99.90
21582;DHT22;10952;50.836;4.348;2024-02-04T10:19:47;12.50;99.90
21582;DHT22;10952;50.836;4.348;2024-02-04T10:22:16;12.50;99.90
21582;DHT22;10952;50.836;4.348;2024-02-04T10:24:51;12.50;99.90
21582;DHT22;10952;50.836;4.348;2024-02-04T10:27:20;12.40;99.90
21582;DHT22;10952;50.836;4.348;2024-02-04T10:29:49;12.40;99.90
21582;DHT22;10952;50.836;4.348;2024-02-04T10:32:21;12.50;99.90
21582;DHT22;10952;50.836;4.348;2024-02-04T10:34:51;12.40;99.90
21582;DHT22;10952;50.836;4.348;2024-02-04T10:37:17;12.50;99.90
21582;DHT22;10952;50.836;4.348;2024-02-04T10:39:53;12.50;99.90
21582;DHT22;10952;50.836;4.348;2024-02-04T10:42:24;12.50;99.90
21582;DHT22;10952;50.836;4.348;2024-02-04T10:44:55;12.50;99.90
21582;DHT22;10952;50.836;4.348;2024-02-04T10:47:32;12.50;99.90
21582;DHT22;10952;50.836;4.348;2024-02-04T10:49:58;12.50;99.90
21582;DHT22;10952;50.836;4.348;2024-02-04T10:52:46;12.50;99.90
21582;DHT22;10952;50.836;4.348;2024-02-04T10:55:12;12.50;99.90
21582;DHT22;10952;50.836;4.348;2024-02-04T10:57:39;12.50;99.90
21582;DHT22;10952;50.836;4.348;2024-02-04T11:00:06;12.50;99.90
21582;DHT22;10952;50.836;4.348;2024-02-04T11:02:38;12.40;99.90
21582;DHT22;10952;50.836;4.348;2024-02-04T11:05:10;12.50;99.90
21582;DHT22;10952;50.836;4.348;2024-02-04T11:07:40;12.50;99.90
21582;DHT22;10952;50.836;4.348;2024-02-04T11:10:10;12.50;99.90
21582;DHT22;10952;50.836;4.348;2024-02-04T11:12:38;12.40;99.90
21582;DHT22;10952;50.836;4.348;2024-02-04T11:15:09;12.50;99.90
21582;DHT22;10952;50.836;4.348;2024-02-04T11:17:51;12.40;99.90
21582;DHT22;10952;50.836;4.348;2024-02-04T11:26:13;12.70;99.90
21582;DHT22;10952;50.836;4.348;2024-02-04T11:28:39;12.80;99.90
21582;DHT22;10952;50.836;4.348;2024-02-04T11:31:12;12.80;99.90
21582;DHT22;10952;50.836;4.348;2024-02-04T11:33:38;12.90;99.90
21582;DHT22;10952;50.836;4.348;2024-02-04T11:36:05;12.90;99.90
21582;DHT22;10952;50.836;4.348;2024-02-04T11:38:35;12.90;99.90
21582;DHT22;10952;50.836;4.348;2024-02-04T11:41:03;12.90;99.90
21582;DHT22;10952;50.836;4.348;2024-02-04T11:43:28;12.80;99.90
21582;DHT22;10952;50.836;4.348;2024-02-04T11:45:54;12.70;99.90
21582;DHT22;10952;50.836;4.348;2024-02-04T11:48:28;12.70;99.90
21582;DHT22;10952;50.836;4.348;2024-02-04T11:50:54;12.60;99.90
21582;DHT22;10952;50.836;4.348;2024-02-04T11:53:19;12.60;99.90
21582;DHT22;10952;50.836;4.348;2024-02-04T11:55:45;12.50;99.90
21582;DHT22;10952;50.836;4.348;2024-02-04T11:58:11;12.40;99.90
21582;DHT22;10952;50.836;4.348;2024-02-04T12:00:37;12.40;99.90
21582;DHT22;10952;50.836;4.348;2024-02-04T12:03:08;12.50;99.90
21582;DHT22;10952;50.836;4.348;2024-02-04T12:05:35;12.50;99.90
21582;DHT22;10952;50.836;4.348;2024-02-04T12:08:05;12.50;99.90
21582;DHT22;10952;50.836;4.348;2024-02-04T12:10:35;12.50;99.90
21582;DHT22;10952;50.836;4.348;2024-02-04T12:13:06;12.60;99.90
21582;DHT22;10952;50.836;4.348;2024-02-04T12:15:35;12.50;99.90
21582;DHT22;10952;50.836;4.348;2024-02-04T12:18:11;12.60;99.90
21582;DHT22;10952;50.836;4.348;2024-02-04T12:20:37;12.70;99.90
21582;DHT22;10952;50.836;4.348;2024-02-04T12:23:04;12.60;99.90
21582;DHT22;10952;50.836;4.348;2024-02-04T12:25:36;12.60;99.90
21582;DHT22;10952;50.836;4.348;2024-02-04T12:28:02;12.70;99.90
21582;DHT22;10952;50.836;4.348;2024-02-04T12:30:30;12.60;99.90
21582;DHT22;10952;50.836;4.348;2024-02-04T12:33:00;12.50;99.90
21582;DHT22;10952;50.836;4.348;2024-02-04T12:35:26;12.60;99.90
21582;DHT22;10952;50.836;4.348;2024-02-04T12:37:56;12.50;99.90
21582;DHT22;10952;50.836;4.348;2024-02-04T12:40:30;12.50;99.90
21582;DHT22;10952;50.836;4.348;2024-02-04T12:43:00;12.60;99.90
21582;DHT22;10952;50.836;4.348;2024-02-04T12:45:27;12.70;99.90
21582;DHT22;10952;50.836;4.348;2024-02-04T12:47:57;12.60;99.90
21582;DHT22;10952;50.836;4.348;2024-02-04T12:50:24;12.50;99.90
21582;DHT22;10952;50.836;4.348;2024-02-04T12:53:09;12.50;99.90
21582;DHT22;10952;50.836;4.348;2024-02-04T12:55:38;12.50;99.90
21582;DHT22;10952;50.836;4.348;2024-02-04T12:58:09;12.50;99.90
21582;DHT22;10952;50.836;4.348;2024-02-04T13:00:35;12.30;99.90
21582;DHT22;10952;50.836;4.348;2024-02-04T13:03:05;12.40;99.90
21582;DHT22;10952;50.836;4.348;2024-02-04T13:05:31;12.40;99.90
21582;DHT22;10952;50.836;4.348;2024-02-04T13:07:58;12.50;99.90
21582;DHT22;10952;50.836;4.348;2024-02-04T13:10:25;12.50;99.90
21582;DHT22;10952;50.836;4.348;2024-02-04T13:13:07;12.50;99.90
21582;DHT22;10952;50.836;4.348;2024-02-04T13:15:43;12.40;99.90
21582;DHT22;10952;50.836;4.348;2024-02-04T13:18:09;12.40;99.90
21582;DHT22;10952;50.836;4.348;2024-02-04T13:20:43;12.40;99.90
21582;DHT22;10952;50.836;4.348;2024-02-04T13:23:11;12.30;99.90
21582;DHT22;10952;50.836;4.348;2024-02-04T13:25:37;12.40;99.90
21582;DHT22;10952;50.836;4.348;2024-02-04T13:28:03;12.30;99.90
21582;DHT22;10952;50.836;4.348;2024-02-04T13:30:29;12.30;99.90
21582;DHT22;10952;50.836;4.348;2024-02-04T13:32:56;12.20;99.90
21582;DHT22;10952;50.836;4.348;2024-02-04T13:35:23;12.20;99.90
21582;DHT22;10952;50.836;4.348;2024-02-04T13:37:49;12.20;99.90
21582;DHT22;10952;50.836;4.348;2024-02-04T13:40:18;12.20;99.90
21582;DHT22;10952;50.836;4.348;2024-02-04T13:42:45;12.10;99.90
21582;DHT22;10952;50.836;4.348;2024-02-04T13:45:12;12.10;99.90
21582;DHT22;10952;50.836;4.348;2024-02-04T13:47:39;12.10;99.90
21582;DHT22;10952;50.836;4.348;2024-02-04T13:50:06;12.20;99.90
21582;DHT22;10952;50.836;4.348;2024-02-04T13:52:34;12.00;99.90
21582;DHT22;10952;50.836;4.348;2024-02-04T13:55:00;12.10;99.90
21582;DHT22;10952;50.836;4.348;2024-02-04T13:57:26;12.00;99.90
21582;DHT22;10952;50.836;4.348;2024-02-04T13:59:52;12.00;99.90
21582;DHT22;10952;50.836;4.348;2024-02-04T14:02:18;12.00;99.90
21582;DHT22;10952;50.836;4.348;2024-02-04T14:04:43;12.10;99.90
21582;DHT22;10952;50.836;4.348;2024-02-04T14:07:09;12.10;99.90
21582;DHT22;10952;50.836;4.348;2024-02-04T14:09:35;12.00;99.90
21582;DHT22;10952;50.836;4.348;2024-02-04T14:12:02;12.00;99.90
21582;DHT22;10952;50.836;4.348;2024-02-04T14:14:29;12.00;99.90
21582;DHT22;10952;50.836;4.348;2024-02-04T14:16:55;12.00;99.90
21582;DHT22;10952;50.836;4.348;2024-02-04T14:19:21;12.00;99.90
21582;DHT22;10952;50.836;4.348;2024-02-04T14:21:47;12.00;99.90
21582;DHT22;10952;50.836;4.348;2024-02-04T14:24:13;12.00;99.90
21582;DHT22;10952;50.836;4.348;2024-02-04T14:26:39;12.10;99.90
21582;DHT22;10952;50.836;4.348;2024-02-04T14:29:06;12.00;99.90
21582;DHT22;10952;50.836;4.348;2024-02-04T14:31:32;12.00;99.90
21582;DHT22;10952;50.836;4.348;2024-02-04T14:33:58;11.90;99.90
21582;DHT22;10952;50.836;4.348;2024-02-04T14:36:24;12.00;99.90
21582;DHT22;10952;50.836;4.348;2024-02-04T14:38:50;12.00;99.90
21582;DHT22;10952;50.836;4.348;2024-02-04T14:41:16;11.90;99.90
21582;DHT22;10952;50.836;4.348;2024-02-04T14:43:42;12.00;99.90
21582;DHT22;10952;50.836;4.348;2024-02-04T14:46:08;12.00;99.90
21582;DHT22;10952;50.836;4.348;2024-02-04T14:48:36;12.10;99.90
21582;DHT22;10952;50.836;4.348;2024-02-04T14:51:02;12.20;99.90
21582;DHT22;10952;50.836;4.348;2024-02-04T14:53:28;12.20;99.90
21582;DHT22;10952;50.836;4.348;2024-02-04T14:55:54;12.20;99.90
21582;DHT22;10952;50.836;4.348;2024-02-04T14:58:22;12.20;99.90
21582;DHT22;10952;50.836;4.348;2024-02-04T15:00:48;12.30;99.90
21582;DHT22;10952;50.836;4.348;2024-02-04T15:03:14;12.30;99.90
21582;DHT22;10952;50.836;4.348;2024-02-04T15:05:40;12.30;99.90
21582;DHT22;10952;50.836;4.348;2024-02-04T15:08:07;12.30;99.90
21582;DHT22;10952;50.836;4.348;2024-02-04T15:10:33;12.30;99.90
21582;DHT22;10952;50.836;4.348;2024-02-04T15:12:59;12.20;99.90
21582;DHT22;10952;50.836;4.348;2024-02-04T15:15:26;12.20;99.90
21582;DHT22;10952;50.836;4.348;2024-02-04T15:17:52;12.30;99.90
21582;DHT22;10952;50.836;4.348;2024-02-04T15:20:18;12.30;99.90
21582;DHT22;10952;50.836;4.348;2024-02-04T15:22:44;12.30;99.90
21582;DHT22;10952;50.836;4.348;2024-02-04T15:25:10;12.30;99.90
21582;DHT22;10952;50.836;4.348;2024-02-04T15:27:39;12.30;99.90
21582;DHT22;10952;50.836;4.348;2024-02-04T15:30:06;12.30;99.90
21582;DHT22;10952;50.836;4.348;2024-02-04T15:32:34;12.40;99.90
21582;DHT22;10952;50.836;4.348;2024-02-04T15:35:00;12.40;99.90
21582;DHT22;10952;50.836;4.348;2024-02-04T15:37:26;12.40;99.90
21582;DHT22;10952;50.836;4.348;2024-02-04T15:39:52;12.40;99.90
21582;DHT22;10952;50.836;4.348;2024-02-04T15:42:19;12.40;99.90
21582;DHT22;10952;50.836;4.348;2024-02-04T15:44:45;12.40;99.90
21582;DHT22;10952;50.836;4.348;2024-02-04T15:47:11;12.50;99.90
21582;DHT22;10952;50.836;4.348;2024-02-04T15:49:37;12.50;99.90
21582;DHT22;10952;50.836;4.348;2024-02-04T15:52:04;12.40;99.90
21582;DHT22;10952;50.836;4.348;2024-02-04T15:54:30;12.50;99.90
21582;DHT22;10952;50.836;4.348;2024-02-04T15:57:06;12.50;99.90
21582;DHT22;10952;50.836;4.348;2024-02-04T16:02:06;12.50;99.90
21582;DHT22;10952;50.836;4.348;2024-02-04T16:04:34;12.40;99.90
21582;DHT22;10952;50.836;4.348;2024-02-04T16:07:00;12.40;99.90
21582;DHT22;10952;50.836;4.348;2024-02-04T16:09:28;12.40;99.90